createdAt,value
2023-01-29T00:00:20.846Z,3.07
2023-01-29T00:02:47.478Z,3.09
2023-01-29T00:05:27.128Z,3.06
2023-01-29T00:07:56.430Z,3.07
2023-01-29T00:10:24.875Z,3.06
2023-01-29T00:12:51.937Z,3.06
2023-01-29T00:15:18.827Z,3.06
2023-01-29T00:17:45.294Z,3.06
2023-01-29T00:20:12.266Z,3.04
2023-01-29T00:22:38.728Z,3.01
2023-01-29T00:25:05.664Z,3.03
2023-01-29T00:27:32.129Z,3.02
2023-01-29T00:30:16.353Z,3.02
2023-01-29T00:32:43.024Z,3.03
2023-01-29T00:35:09.891Z,2.99
2023-01-29T00:37:36.425Z,2.98
2023-01-29T00:40:03.848Z,3.00
2023-01-29T00:42:49.146Z,3.02
2023-01-29T00:45:15.787Z,3.06
2023-01-29T00:47:42.299Z,3.00
2023-01-29T00:50:11.440Z,3.03
2023-01-29T00:52:38.490Z,3.04
2023-01-29T00:55:05.926Z,3.00
2023-01-29T00:57:34.016Z,3.06
2023-01-29T01:00:01.029Z,3.08
2023-01-29T01:02:46.848Z,3.07
2023-01-29T01:05:19.005Z,3.09
2023-01-29T01:07:47.745Z,3.11
2023-01-29T01:10:21.866Z,3.04
2023-01-29T01:12:50.757Z,3.07
2023-01-29T01:15:18.054Z,3.09
2023-01-29T01:17:44.721Z,3.07
2023-01-29T01:20:12.420Z,3.04
2023-01-29T01:22:38.900Z,3.09
2023-01-29T01:25:05.778Z,3.09
2023-01-29T01:27:32.314Z,3.08
2023-01-29T01:29:58.797Z,3.10
2023-01-29T01:32:26.051Z,3.13
2023-01-29T01:34:53.566Z,3.08
2023-01-29T01:37:20.350Z,3.12
2023-01-29T01:39:48.932Z,3.11
2023-01-29T01:42:15.391Z,3.13
2023-01-29T01:44:53.388Z,3.16
2023-01-29T01:47:27.066Z,3.16
2023-01-29T01:49:54.938Z,3.16
2023-01-29T01:52:21.987Z,3.14
2023-01-29T01:54:49.439Z,3.15
2023-01-29T01:57:25.206Z,3.14
2023-01-29T02:00:09.983Z,3.12
2023-01-29T02:02:57.971Z,3.15
2023-01-29T02:05:43.885Z,3.11
2023-01-29T02:08:29.237Z,3.15
2023-01-29T02:10:55.716Z,3.14
2023-01-29T02:13:23.040Z,3.11
2023-01-29T02:15:49.669Z,3.14
2023-01-29T02:18:19.265Z,3.15
2023-01-29T02:21:31.550Z,3.15
2023-01-29T02:24:38.897Z,3.12
2023-01-29T02:27:11.851Z,3.11
2023-01-29T02:29:49.769Z,3.09
2023-01-29T02:32:21.119Z,3.07
2023-01-29T02:35:28.446Z,3.11
2023-01-29T02:38:11.354Z,3.09
2023-01-29T02:40:45.408Z,3.07
2023-01-29T02:43:44.085Z,3.09
2023-01-29T02:46:19.498Z,3.04
2023-01-29T02:48:57.675Z,3.09
2023-01-29T02:51:38.482Z,3.09
2023-01-29T02:54:32.578Z,3.11
2023-01-29T02:57:05.073Z,3.09
2023-01-29T02:59:42.202Z,3.07
2023-01-29T03:02:16.382Z,3.11
2023-01-29T03:04:49.223Z,3.12
2023-01-29T03:07:41.205Z,3.10
2023-01-29T03:10:17.521Z,3.11
2023-01-29T03:12:51.150Z,3.12
2023-01-29T03:15:27.273Z,3.12
2023-01-29T03:18:11.474Z,3.09
2023-01-29T03:20:48.176Z,3.12
2023-01-29T03:23:24.164Z,3.12
2023-01-29T03:26:18.135Z,3.11
2023-01-29T03:29:04.865Z,3.10
2023-01-29T03:31:50.889Z,3.09
2023-01-29T03:34:24.468Z,3.09
2023-01-29T03:37:05.508Z,3.05
2023-01-29T03:39:31.943Z,3.05
2023-01-29T03:42:04.912Z,3.07
2023-01-29T03:44:37.127Z,3.03
2023-01-29T03:47:13.785Z,3.03
2023-01-29T03:49:49.277Z,3.03
2023-01-29T03:52:25.760Z,3.03
2023-01-29T03:55:10.634Z,3.02
2023-01-29T03:57:54.547Z,3.05
2023-01-29T04:00:28.014Z,3.06
2023-01-29T04:03:24.545Z,3.07
2023-01-29T04:05:50.956Z,3.05
2023-01-29T04:08:29.169Z,3.08
2023-01-29T04:10:59.377Z,3.08
2023-01-29T04:13:27.522Z,3.03
2023-01-29T04:15:58.416Z,3.03
2023-01-29T04:18:25.578Z,3.05
2023-01-29T04:20:52.284Z,3.05
2023-01-29T04:23:24.922Z,3.05
2023-01-29T04:26:25.333Z,3.02
2023-01-29T04:29:30.185Z,2.98
2023-01-29T04:32:20.137Z,2.91
2023-01-29T04:35:05.237Z,2.92
2023-01-29T04:38:02.556Z,2.93
2023-01-29T04:40:41.295Z,2.89
2023-01-29T04:43:30.451Z,2.90
2023-01-29T04:46:21.825Z,2.87
2023-01-29T04:49:13.033Z,2.90
2023-01-29T04:51:45.395Z,2.89
2023-01-29T04:54:33.138Z,2.91
2023-01-29T04:57:08.581Z,2.92
2023-01-29T04:59:42.813Z,2.85
2023-01-29T05:02:11.955Z,2.85
2023-01-29T05:04:40.948Z,2.86
2023-01-29T05:07:12.425Z,2.87
2023-01-29T05:09:40.067Z,2.87
2023-01-29T05:12:10.617Z,2.84
2023-01-29T05:14:39.660Z,2.79
2023-01-29T05:17:12.572Z,2.83
2023-01-29T05:19:39.069Z,2.82
2023-01-29T05:22:08.870Z,2.75
2023-01-29T05:24:35.978Z,2.79
2023-01-29T05:27:22.028Z,2.77
2023-01-29T05:29:48.723Z,2.79
2023-01-29T05:32:16.054Z,2.75
2023-01-29T05:34:42.554Z,2.74
2023-01-29T05:37:10.461Z,2.74
2023-01-29T05:39:36.907Z,2.79
2023-01-29T05:42:03.606Z,2.76
2023-01-29T05:44:30.061Z,2.73
2023-01-29T05:46:56.690Z,2.73
2023-01-29T05:49:23.263Z,2.76
2023-01-29T05:51:49.794Z,2.73
2023-01-29T05:54:16.285Z,2.75
2023-01-29T05:56:42.861Z,2.71
2023-01-29T05:59:09.384Z,2.69
2023-01-29T06:01:35.913Z,2.70
2023-01-29T06:04:02.436Z,2.69
2023-01-29T06:06:28.959Z,2.69
2023-01-29T06:08:56.133Z,2.68
2023-01-29T06:11:22.759Z,2.64
2023-01-29T06:13:49.307Z,2.67
2023-01-29T06:16:15.922Z,2.67
2023-01-29T06:18:42.989Z,2.68
2023-01-29T06:21:12.300Z,2.72
2023-01-29T06:23:39.231Z,2.69
2023-01-29T06:26:08.595Z,2.68
2023-01-29T06:28:35.569Z,2.70
2023-01-29T06:31:23.668Z,2.75
2023-01-29T06:33:50.416Z,2.76
2023-01-29T06:36:16.972Z,2.74
2023-01-29T06:38:43.494Z,2.72
2023-01-29T06:41:12.266Z,2.74
2023-01-29T06:43:39.616Z,2.74
2023-01-29T06:46:08.262Z,2.73
2023-01-29T06:48:34.885Z,2.74
2023-01-29T06:51:05.705Z,2.72
2023-01-29T06:53:34.472Z,2.73
2023-01-29T06:56:01.199Z,2.77
2023-01-29T06:58:27.713Z,2.73
2023-01-29T07:00:54.251Z,2.77
2023-01-29T07:03:20.854Z,2.79
2023-01-29T07:05:51.994Z,2.80
2023-01-29T07:08:19.059Z,2.78
2023-01-29T07:10:45.604Z,2.78
2023-01-29T07:13:12.117Z,2.79
2023-01-29T07:15:38.651Z,2.79
2023-01-29T07:18:11.968Z,2.80
2023-01-29T07:20:42.813Z,2.80
2023-01-29T07:23:13.481Z,2.78
2023-01-29T07:25:40.591Z,2.78
2023-01-29T07:28:07.671Z,2.76
2023-01-29T07:30:34.414Z,2.76
2023-01-29T07:33:07.442Z,2.75
2023-01-29T07:35:42.063Z,2.77
2023-01-29T07:38:10.295Z,2.80
2023-01-29T07:40:37.319Z,2.78
2023-01-29T07:43:06.688Z,2.79
2023-01-29T07:45:35.404Z,2.78
2023-01-29T07:48:02.061Z,2.82
2023-01-29T07:50:28.619Z,2.79
2023-01-29T07:52:55.274Z,2.82
2023-01-29T07:55:21.750Z,2.81
2023-01-29T07:57:48.309Z,2.81
2023-01-29T08:00:15.539Z,2.85
2023-01-29T08:02:42.337Z,2.84
2023-01-29T08:05:09.221Z,2.85
2023-01-29T08:07:35.729Z,2.88
2023-01-29T08:10:02.253Z,2.92
2023-01-29T08:12:28.807Z,2.95
2023-01-29T08:14:55.406Z,2.94
2023-01-29T08:17:21.946Z,2.97
2023-01-29T08:19:48.488Z,3.00
2023-01-29T08:22:17.823Z,3.02
2023-01-29T08:24:53.707Z,3.04
2023-01-29T08:27:26.926Z,3.07
2023-01-29T08:29:53.492Z,3.10
2023-01-29T08:32:19.982Z,3.10
2023-01-29T08:34:46.411Z,3.14
2023-01-29T08:37:12.877Z,3.15
2023-01-29T08:39:39.431Z,3.14
2023-01-29T08:42:06.083Z,3.17
2023-01-29T08:44:32.627Z,3.20
2023-01-29T08:46:59.111Z,3.24
2023-01-29T08:49:25.731Z,3.28
2023-01-29T08:51:52.227Z,3.23
2023-01-29T08:54:18.680Z,3.28
2023-01-29T08:56:45.740Z,3.28
2023-01-29T08:59:12.442Z,3.27
2023-01-29T09:01:38.915Z,3.30
2023-01-29T09:04:05.446Z,3.31
2023-01-29T09:06:31.889Z,3.29
2023-01-29T09:08:58.408Z,3.29
2023-01-29T09:11:24.914Z,3.36
2023-01-29T09:13:51.480Z,3.38
2023-01-29T09:16:18.365Z,3.35
2023-01-29T09:18:44.898Z,3.36
2023-01-29T09:21:11.469Z,3.41
2023-01-29T09:23:38.236Z,3.42
2023-01-29T09:26:04.928Z,3.42
2023-01-29T09:28:31.473Z,3.46
2023-01-29T09:31:01.726Z,3.49
2023-01-29T09:33:29.120Z,3.50
2023-01-29T09:35:55.548Z,3.56
2023-01-29T09:38:23.033Z,3.60
2023-01-29T09:41:08.883Z,3.65
2023-01-29T09:43:59.014Z,3.61
2023-01-29T09:46:43.736Z,3.63
2023-01-29T09:49:21.099Z,3.67
2023-01-29T09:51:53.079Z,3.72
2023-01-29T09:54:47.119Z,3.70
2023-01-29T09:57:22.561Z,3.72
2023-01-29T09:59:49.194Z,3.75
2023-01-29T10:02:38.597Z,3.76
2023-01-29T10:05:16.939Z,3.76
2023-01-29T10:08:01.892Z,3.79
2023-01-29T10:10:36.406Z,3.80
2023-01-29T10:13:15.542Z,3.80
2023-01-29T10:15:49.853Z,3.88
2023-01-29T10:18:48.362Z,3.90
2023-01-29T10:21:27.161Z,3.94
2023-01-29T10:24:11.526Z,3.90
2023-01-29T10:26:40.660Z,3.92
2023-01-29T10:29:08.356Z,3.91
2023-01-29T10:31:40.304Z,3.95
2023-01-29T10:34:19.192Z,3.91
2023-01-29T10:36:48.127Z,3.87
2023-01-29T10:39:17.745Z,3.87
2023-01-29T10:42:09.955Z,3.94
2023-01-29T10:44:42.438Z,3.95
2023-01-29T10:47:29.967Z,3.95
2023-01-29T10:50:17.532Z,4.00
2023-01-29T10:52:59.113Z,4.01
2023-01-29T10:55:46.195Z,4.03
2023-01-29T10:58:27.849Z,4.07
2023-01-29T11:00:54.335Z,4.14
2023-01-29T11:03:29.335Z,4.17
2023-01-29T11:06:03.017Z,4.16
2023-01-29T11:08:57.169Z,4.15
2023-01-29T11:11:36.314Z,4.16
2023-01-29T11:14:08.919Z,4.14
2023-01-29T11:16:47.484Z,4.14
2023-01-29T11:19:15.348Z,4.12
2023-01-29T11:22:01.909Z,4.13
2023-01-29T11:24:28.613Z,4.13
2023-01-29T11:26:58.780Z,4.14
2023-01-29T11:29:48.098Z,4.19
2023-01-29T11:32:23.777Z,4.20
2023-01-29T11:35:19.623Z,4.19
2023-01-29T11:37:47.012Z,4.15
2023-01-29T11:40:19.704Z,4.20
2023-01-29T11:42:47.402Z,4.16
2023-01-29T11:45:19.858Z,4.21
2023-01-29T11:48:04.964Z,4.25
2023-01-29T11:50:33.700Z,4.24
2023-01-29T11:53:00.389Z,4.20
2023-01-29T11:55:48.191Z,4.23
2023-01-29T11:58:21.316Z,4.24
2023-01-29T12:00:52.032Z,4.21
2023-01-29T12:03:24.914Z,4.21
2023-01-29T12:06:02.861Z,4.19
2023-01-29T12:08:36.604Z,4.23
2023-01-29T12:11:14.042Z,4.24
2023-01-29T12:13:43.408Z,4.17
2023-01-29T12:16:20.634Z,4.19
2023-01-29T12:19:15.777Z,4.20
2023-01-29T12:22:04.100Z,4.23
2023-01-29T12:24:30.645Z,4.28
2023-01-29T12:27:23.723Z,4.21
2023-01-29T12:29:56.515Z,4.17
2023-01-29T12:32:36.987Z,4.21
2023-01-29T12:35:13.363Z,4.20
2023-01-29T12:38:10.565Z,4.21
2023-01-29T12:40:55.580Z,4.25
2023-01-29T12:43:40.212Z,4.27
2023-01-29T12:46:15.074Z,4.30
2023-01-29T12:48:44.279Z,4.26
2023-01-29T12:51:16.507Z,4.27
2023-01-29T12:53:59.823Z,4.33
2023-01-29T12:56:39.838Z,4.32
2023-01-29T12:59:19.838Z,4.30
2023-01-29T13:01:59.554Z,4.33
2023-01-29T13:04:35.274Z,4.32
2023-01-29T13:07:12.182Z,4.31
2023-01-29T13:09:43.164Z,4.33
2023-01-29T13:12:18.619Z,4.28
2023-01-29T13:15:06.799Z,4.29
2023-01-29T13:17:38.009Z,4.28
2023-01-29T13:20:21.230Z,4.32
2023-01-29T13:22:49.667Z,4.33
2023-01-29T13:25:19.042Z,4.37
2023-01-29T13:27:48.685Z,4.41
2023-01-29T13:30:28.373Z,4.48
2023-01-29T13:33:09.063Z,4.50
2023-01-29T13:35:43.060Z,4.54
2023-01-29T13:38:28.450Z,4.56
2023-01-29T13:41:03.209Z,4.59
2023-01-29T13:43:37.076Z,4.58
2023-01-29T13:46:14.415Z,4.62
2023-01-29T13:48:43.348Z,4.65
2023-01-29T13:51:15.648Z,4.71
2023-01-29T13:53:44.177Z,4.68
2023-01-29T13:56:32.608Z,4.69
2023-01-29T13:59:00.696Z,4.64
2023-01-29T14:01:45.520Z,4.71
2023-01-29T14:04:31.885Z,4.74
2023-01-29T14:06:59.580Z,4.78
2023-01-29T14:09:38.444Z,4.83
2023-01-29T14:12:25.362Z,4.80
2023-01-29T14:14:56.635Z,4.84
2023-01-29T14:17:26.839Z,4.83
2023-01-29T14:20:00.234Z,4.84
2023-01-29T14:22:28.624Z,4.87
2023-01-29T14:25:05.854Z,4.88
2023-01-29T14:27:32.920Z,4.86
2023-01-29T14:30:07.487Z,4.89
2023-01-29T14:32:34.096Z,4.90
2023-01-29T14:35:17.815Z,4.89
2023-01-29T14:37:49.120Z,4.89
2023-01-29T14:40:23.711Z,4.94
2023-01-29T14:43:19.940Z,4.93
2023-01-29T14:45:48.171Z,4.94
2023-01-29T14:48:46.250Z,4.95
2023-01-29T14:51:17.667Z,4.91
2023-01-29T14:53:53.415Z,4.89
2023-01-29T14:56:40.733Z,4.86
2023-01-29T14:59:30.934Z,4.86
2023-01-29T15:02:03.454Z,4.86
2023-01-29T15:04:44.475Z,4.85
2023-01-29T15:07:10.910Z,4.86
2023-01-29T15:09:54.180Z,4.85
2023-01-29T15:12:31.456Z,4.87
2023-01-29T15:15:06.448Z,4.86
2023-01-29T15:17:55.623Z,4.85
2023-01-29T15:20:41.444Z,4.86
2023-01-29T15:23:30.378Z,4.87
2023-01-29T15:26:01.640Z,4.85
2023-01-29T15:28:33.254Z,4.86
2023-01-29T15:31:04.227Z,4.83
2023-01-29T15:33:32.114Z,4.79
2023-01-29T15:36:07.670Z,4.79
2023-01-29T15:38:35.525Z,4.77
2023-01-29T15:41:14.367Z,4.76
2023-01-29T15:43:44.956Z,4.74
2023-01-29T15:46:15.797Z,4.75
2023-01-29T15:48:44.531Z,4.74
2023-01-29T15:51:17.572Z,4.74
2023-01-29T15:53:54.135Z,4.74
2023-01-29T15:56:28.215Z,4.71
2023-01-29T15:58:57.392Z,4.69
2023-01-29T16:01:27.587Z,4.68
2023-01-29T16:03:54.669Z,4.67
2023-01-29T16:06:22.887Z,4.61
2023-01-29T16:08:54.506Z,4.61
2023-01-29T16:11:21.703Z,4.65
2023-01-29T16:13:49.871Z,4.63
2023-01-29T16:16:16.421Z,4.59
2023-01-29T16:18:57.795Z,4.52
2023-01-29T16:21:25.612Z,4.50
2023-01-29T16:23:56.318Z,4.45
2023-01-29T16:26:28.205Z,4.44
2023-01-29T16:28:55.589Z,4.38
2023-01-29T16:31:31.241Z,4.38
2023-01-29T16:33:59.719Z,4.32
2023-01-29T16:36:27.864Z,4.29
2023-01-29T16:39:01.076Z,4.26
2023-01-29T16:41:30.996Z,4.26
2023-01-29T16:44:24.835Z,4.22
2023-01-29T16:46:52.209Z,4.16
2023-01-29T16:49:32.263Z,4.17
2023-01-29T16:52:17.578Z,4.16
2023-01-29T16:54:44.342Z,4.11
2023-01-29T16:57:34.323Z,4.09
2023-01-29T17:00:06.786Z,4.09
2023-01-29T17:02:38.471Z,4.10
2023-01-29T17:05:20.818Z,4.09
2023-01-29T17:07:47.701Z,4.04
2023-01-29T17:10:21.523Z,4.01
2023-01-29T17:12:55.755Z,3.97
2023-01-29T17:15:33.533Z,3.97
2023-01-29T17:18:00.191Z,3.98
2023-01-29T17:20:27.939Z,3.97
2023-01-29T17:22:54.932Z,3.94
2023-01-29T17:25:22.087Z,3.88
2023-01-29T17:27:51.752Z,3.91
2023-01-29T17:30:24.481Z,3.92
2023-01-29T17:32:50.973Z,3.90
2023-01-29T17:35:18.194Z,3.92
2023-01-29T17:37:44.979Z,3.92
2023-01-29T17:40:21.680Z,3.90
2023-01-29T17:42:48.251Z,3.88
2023-01-29T17:45:15.089Z,3.92
2023-01-29T17:47:41.768Z,3.92
2023-01-29T17:50:25.640Z,3.91
2023-01-29T17:52:53.228Z,3.90
2023-01-29T17:55:20.619Z,3.90
2023-01-29T17:57:47.130Z,3.89
2023-01-29T18:00:19.467Z,3.88
2023-01-29T18:02:46.208Z,3.92
2023-01-29T18:05:14.121Z,3.92
2023-01-29T18:07:43.408Z,3.91
2023-01-29T18:10:17.234Z,3.90
2023-01-29T18:12:44.011Z,3.94
2023-01-29T18:15:11.975Z,3.92
2023-01-29T18:17:39.616Z,3.96
2023-01-29T18:20:22.654Z,3.97
2023-01-29T18:22:49.281Z,3.96
2023-01-29T18:25:16.500Z,4.00
2023-01-29T18:27:43.299Z,4.00
2023-01-29T18:30:10.974Z,4.02
2023-01-29T18:32:37.594Z,4.04
2023-01-29T18:35:06.114Z,4.05
2023-01-29T18:37:33.683Z,4.06
2023-01-29T18:40:00.243Z,4.08
2023-01-29T18:42:26.805Z,4.10
2023-01-29T18:44:53.374Z,4.07
2023-01-29T18:47:20.069Z,4.11
2023-01-29T18:49:46.515Z,4.12
2023-01-29T18:52:13.591Z,4.13
2023-01-29T18:54:40.109Z,4.12
2023-01-29T18:57:14.421Z,4.14
2023-01-29T18:59:53.135Z,4.13
2023-01-29T19:02:19.850Z,4.15
2023-01-29T19:04:47.029Z,4.10
2023-01-29T19:07:14.824Z,4.14
2023-01-29T19:09:42.243Z,4.14
2023-01-29T19:12:08.940Z,4.14
2023-01-29T19:14:35.439Z,4.13
2023-01-29T19:17:01.972Z,4.12
2023-01-29T19:19:28.831Z,4.14
2023-01-29T19:21:55.434Z,4.15
2023-01-29T19:24:22.667Z,4.15
2023-01-29T19:26:49.939Z,4.13
2023-01-29T19:29:16.743Z,4.19
2023-01-29T19:31:43.674Z,4.19
2023-01-29T19:34:10.274Z,4.19
2023-01-29T19:36:37.058Z,4.17
2023-01-29T19:39:04.921Z,4.17
2023-01-29T19:41:31.527Z,4.21
2023-01-29T19:43:58.024Z,4.20
2023-01-29T19:46:24.502Z,4.22
2023-01-29T19:48:51.040Z,4.19
2023-01-29T19:51:17.597Z,4.23
2023-01-29T19:53:44.160Z,4.22
2023-01-29T19:56:17.009Z,4.23
2023-01-29T19:58:43.644Z,4.22
2023-01-29T20:01:19.820Z,4.23
2023-01-29T20:03:48.048Z,4.22
2023-01-29T20:06:22.177Z,4.22
2023-01-29T20:08:49.123Z,4.21
2023-01-29T20:11:17.764Z,4.23
2023-01-29T20:13:47.439Z,4.24
2023-01-29T20:16:14.313Z,4.26
2023-01-29T20:18:40.839Z,4.29
2023-01-29T20:21:10.301Z,4.27
2023-01-29T20:23:38.923Z,4.29
2023-01-29T20:26:11.554Z,4.33
2023-01-29T20:28:38.258Z,4.31
2023-01-29T20:31:05.897Z,4.33
2023-01-29T20:33:34.661Z,4.30
2023-01-29T20:36:04.358Z,4.34
2023-01-29T20:38:31.773Z,4.34
2023-01-29T20:41:04.874Z,4.36
2023-01-29T20:43:32.064Z,4.34
2023-01-29T20:45:59.414Z,4.37
2023-01-29T20:48:26.539Z,4.39
2023-01-29T20:50:54.171Z,4.38
2023-01-29T20:53:20.640Z,4.40
2023-01-29T20:55:47.363Z,4.40
2023-01-29T20:58:14.212Z,4.41
2023-01-29T21:00:41.364Z,4.43
2023-01-29T21:03:07.971Z,4.45
2023-01-29T21:05:34.460Z,4.49
2023-01-29T21:08:01.021Z,4.51
2023-01-29T21:10:27.487Z,4.53
2023-01-29T21:12:54.681Z,4.54
2023-01-29T21:15:21.352Z,4.54
2023-01-29T21:17:48.263Z,4.56
2023-01-29T21:20:15.132Z,4.59
2023-01-29T21:22:43.917Z,4.60
2023-01-29T21:25:11.106Z,4.66
2023-01-29T21:27:37.621Z,4.68
2023-01-29T21:30:04.684Z,4.68
2023-01-29T21:32:31.213Z,4.77
2023-01-29T21:34:57.758Z,4.80
2023-01-29T21:37:24.232Z,4.84
2023-01-29T21:39:50.746Z,4.84
2023-01-29T21:42:35.806Z,4.91
2023-01-29T21:45:02.327Z,4.96
2023-01-29T21:47:28.799Z,4.99
2023-01-29T21:49:55.254Z,5.01
2023-01-29T21:52:21.821Z,5.07
2023-01-29T21:54:48.836Z,5.08
2023-01-29T21:57:16.335Z,5.10
2023-01-29T21:59:43.489Z,5.09
2023-01-29T22:02:14.867Z,5.12
2023-01-29T22:04:42.636Z,5.11
2023-01-29T22:07:10.462Z,5.11
2023-01-29T22:09:37.614Z,5.14
2023-01-29T22:12:06.688Z,5.12
2023-01-29T22:14:33.784Z,5.15
2023-01-29T22:17:00.387Z,5.16
2023-01-29T22:19:28.689Z,5.19
2023-01-29T22:21:55.549Z,5.20
2023-01-29T22:24:22.085Z,5.20
2023-01-29T22:26:49.532Z,5.18
2023-01-29T22:29:17.075Z,5.20
2023-01-29T22:31:44.416Z,5.22
2023-01-29T22:34:12.006Z,5.22
2023-01-29T22:36:39.202Z,5.23
2023-01-29T22:39:09.262Z,5.24
2023-01-29T22:41:36.087Z,5.26
2023-01-29T22:44:02.764Z,5.30
2023-01-29T22:46:29.338Z,5.32
2023-01-29T22:48:56.558Z,5.35
2023-01-29T22:51:23.422Z,5.36
2023-01-29T22:53:56.272Z,5.41
2023-01-29T22:56:26.247Z,5.40
2023-01-29T22:58:54.377Z,5.43
2023-01-29T23:01:31.821Z,5.47
2023-01-29T23:03:58.405Z,5.50
2023-01-29T23:06:24.907Z,5.51
2023-01-29T23:08:51.620Z,5.56
2023-01-29T23:11:20.481Z,5.59
2023-01-29T23:13:52.828Z,5.63
2023-01-29T23:16:22.065Z,5.65
2023-01-29T23:18:53.699Z,5.68
2023-01-29T23:21:22.674Z,5.68
2023-01-29T23:23:49.229Z,5.71
2023-01-29T23:26:34.440Z,5.76
2023-01-29T23:29:01.023Z,5.82
2023-01-29T23:31:27.521Z,5.82
2023-01-29T23:33:54.026Z,5.87
2023-01-29T23:36:20.530Z,5.92
2023-01-29T23:38:47.027Z,5.97
2023-01-29T23:41:13.586Z,5.97
2023-01-29T23:43:40.128Z,6.00
2023-01-29T23:46:06.634Z,6.06
2023-01-29T23:48:33.289Z,6.08
2023-01-29T23:50:59.765Z,6.11
2023-01-29T23:53:26.352Z,6.08
2023-01-29T23:55:58.062Z,6.15
2023-01-29T23:58:25.035Z,6.14
